createdAt,value
2018-09-26T00:02:31.126Z,2.98
2018-09-26T00:05:02.950Z,5.83
2018-09-26T00:07:35.246Z,2.30
2018-09-26T00:10:07.047Z,4.92
2018-09-26T00:12:40.766Z,2.70
2018-09-26T00:15:13.530Z,3.17
2018-09-26T00:17:45.927Z,3.40
2018-09-26T00:20:17.488Z,3.60
2018-09-26T00:22:50.287Z,2.65
2018-09-26T00:25:22.526Z,3.50
2018-09-26T00:27:54.566Z,3.05
2018-09-26T00:30:26.647Z,3.62
2018-09-26T00:32:57.706Z,2.95
2018-09-26T00:35:29.307Z,6.97
2018-09-26T00:38:01.149Z,4.55
2018-09-26T00:40:32.887Z,7.10
2018-09-26T00:43:04.526Z,4.15
2018-09-26T00:45:36.207Z,4.08
2018-09-26T00:48:08.247Z,2.80
2018-09-26T00:50:40.846Z,3.40
2018-09-26T00:53:12.448Z,2.90
2018-09-26T00:55:43.953Z,7.25
2018-09-26T00:58:16.168Z,3.58
2018-09-26T01:00:48.606Z,3.20
2018-09-26T01:03:19.827Z,3.50
2018-09-26T01:05:52.247Z,4.30
2018-09-26T01:08:23.767Z,3.02
2018-09-26T01:10:55.587Z,2.77
2018-09-26T01:13:26.747Z,3.92
2018-09-26T01:15:57.669Z,3.37
2018-09-26T01:18:29.567Z,3.60
2018-09-26T01:21:01.126Z,5.50
2018-09-26T01:23:32.827Z,4.45
2018-09-26T01:26:04.006Z,4.72
2018-09-26T01:28:36.206Z,3.85
2018-09-26T01:31:07.707Z,3.72
2018-09-26T01:33:40.267Z,3.70
2018-09-26T01:36:12.407Z,3.15
2018-09-26T01:38:43.948Z,3.58
2018-09-26T01:41:15.397Z,4.87
2018-09-26T01:43:47.806Z,5.15
2018-09-26T01:46:19.067Z,3.47
2018-09-26T01:48:51.588Z,2.90
2018-09-26T01:51:23.027Z,3.87
2018-09-26T01:53:55.747Z,3.40
2018-09-26T01:56:27.888Z,3.80
2018-09-26T01:58:59.127Z,4.28
2018-09-26T02:01:30.487Z,4.03
2018-09-26T02:04:02.287Z,3.25
2018-09-26T02:06:33.547Z,4.97
2018-09-26T02:09:05.787Z,4.75
2018-09-26T02:11:36.887Z,3.72
2018-09-26T02:14:09.368Z,4.85
2018-09-26T02:16:41.166Z,3.80
2018-09-26T02:19:12.767Z,3.10
2018-09-26T02:21:43.927Z,3.12
2018-09-26T02:24:16.007Z,3.15
2018-09-26T02:26:46.867Z,3.60
2018-09-26T02:29:19.107Z,3.60
2018-09-26T02:31:50.487Z,3.65
2018-09-26T02:34:21.694Z,4.47
2018-09-26T02:36:53.427Z,4.87
2018-09-26T02:39:25.107Z,3.70
2018-09-26T02:41:56.807Z,4.22
2018-09-26T02:44:28.267Z,3.83
2018-09-26T02:47:00.069Z,4.05
2018-09-26T02:49:31.386Z,4.85
2018-09-26T02:52:02.567Z,3.67
2018-09-26T02:54:34.507Z,3.92
2018-09-26T02:57:05.687Z,3.62
2018-09-26T02:59:36.987Z,4.58
2018-09-26T03:02:08.369Z,3.50
2018-09-26T03:04:40.588Z,3.50
2018-09-26T03:07:11.827Z,5.37
2018-09-26T03:09:43.447Z,5.17
2018-09-26T03:12:15.187Z,43.05
2018-09-26T03:14:47.667Z,5.05
2018-09-26T03:17:18.867Z,8.53
2018-09-26T03:19:50.207Z,3.92
2018-09-26T03:22:21.787Z,4.97
2018-09-26T03:24:53.547Z,3.92
2018-09-26T03:27:25.594Z,4.10
2018-09-26T03:29:57.126Z,6.10
2018-09-26T03:32:29.127Z,3.50
2018-09-26T03:35:01.217Z,3.50
2018-09-26T03:37:32.707Z,3.70
2018-09-26T03:40:05.167Z,5.58
2018-09-26T03:42:36.411Z,4.45
2018-09-26T03:45:08.510Z,3.67
2018-09-26T03:47:39.689Z,4.12
2018-09-26T03:50:11.887Z,3.95
2018-09-26T03:52:43.426Z,4.28
2018-09-26T03:55:15.246Z,4.17
2018-09-26T03:57:46.906Z,6.50
2018-09-26T04:00:19.127Z,3.83
2018-09-26T04:02:50.267Z,5.70
2018-09-26T04:05:21.966Z,3.55
2018-09-26T04:07:53.606Z,4.00
2018-09-26T04:10:25.307Z,4.95
2018-09-26T04:12:56.657Z,6.90
2018-09-26T04:15:28.337Z,4.28
2018-09-26T04:18:00.007Z,6.40
2018-09-26T04:20:31.597Z,3.95
2018-09-26T04:23:03.448Z,7.42
2018-09-26T04:25:34.606Z,5.37
2018-09-26T04:28:06.235Z,4.85
2018-09-26T04:30:37.827Z,5.10
2018-09-26T04:33:10.354Z,7.08
2018-09-26T04:35:41.747Z,4.90
2018-09-26T04:38:12.846Z,6.08
2018-09-26T04:40:44.826Z,5.15
2018-09-26T04:43:16.911Z,4.55
2018-09-26T04:45:48.206Z,11.25
2018-09-26T04:48:20.247Z,6.25
2018-09-26T04:50:52.232Z,7.40
2018-09-26T04:53:24.051Z,4.62
2018-09-26T04:55:55.747Z,4.80
2018-09-26T04:58:28.129Z,4.72
2018-09-26T05:00:59.820Z,6.35
2018-09-26T05:03:31.527Z,5.25
2018-09-26T05:06:03.366Z,4.35
2018-09-26T05:08:35.395Z,4.28
2018-09-26T05:11:07.027Z,5.75
2018-09-26T05:13:39.127Z,5.33
2018-09-26T05:16:10.388Z,6.87
2018-09-26T05:18:42.467Z,12.05
2018-09-26T05:21:13.968Z,6.10
2018-09-26T05:23:46.127Z,5.42
2018-09-26T05:26:18.232Z,9.40
2018-09-26T05:28:49.987Z,8.90
2018-09-26T05:31:22.548Z,6.85
2018-09-26T05:33:54.234Z,7.22
2018-09-26T05:36:25.669Z,9.03
2018-09-26T05:38:57.267Z,6.12
2018-09-26T05:41:28.667Z,10.08
2018-09-26T05:44:00.067Z,6.30
2018-09-26T05:46:32.026Z,7.50
2018-09-26T05:49:03.687Z,14.35
2018-09-26T05:51:35.907Z,7.80
2018-09-26T05:54:07.781Z,9.35
2018-09-26T05:56:39.527Z,7.60
2018-09-26T05:59:11.826Z,8.33
2018-09-26T06:01:43.730Z,7.40
2018-09-26T06:04:17.127Z,11.90
2018-09-26T06:06:49.107Z,6.22
2018-09-26T06:09:21.965Z,5.75
2018-09-26T06:11:53.127Z,9.63
2018-09-26T06:14:25.227Z,4.85
2018-09-26T06:16:56.478Z,7.12
2018-09-26T06:19:29.015Z,6.20
2018-09-26T06:22:00.956Z,10.40
2018-09-26T06:24:33.447Z,7.97
2018-09-26T06:27:06.696Z,6.00
2018-09-26T06:29:38.936Z,9.38
2018-09-26T06:32:10.869Z,7.97
2018-09-26T06:34:43.688Z,7.33
2018-09-26T06:37:15.649Z,6.03
2018-09-26T06:39:47.529Z,11.22
2018-09-26T06:42:19.769Z,11.40
2018-09-26T06:44:52.003Z,7.08
2018-09-26T06:47:23.650Z,8.38
2018-09-26T06:49:54.722Z,10.58
2018-09-26T06:52:26.482Z,7.37
2018-09-26T06:54:58.402Z,7.67
2018-09-26T06:57:29.611Z,9.55
2018-09-26T07:00:01.484Z,8.83
2018-09-26T07:02:32.643Z,7.12
2018-09-26T07:05:04.626Z,8.05
2018-09-26T07:07:35.886Z,11.12
2018-09-26T07:10:07.463Z,10.45
2018-09-26T07:12:39.103Z,10.50
2018-09-26T07:15:11.344Z,10.18
2018-09-26T07:17:42.743Z,8.00
2018-09-26T07:20:13.758Z,7.25
2018-09-26T07:22:45.739Z,6.83
2018-09-26T07:25:18.023Z,13.20
2018-09-26T07:27:49.861Z,6.97
2018-09-26T07:30:21.160Z,6.33
2018-09-26T07:32:53.229Z,7.00
2018-09-26T07:35:24.789Z,7.55
2018-09-26T07:37:56.689Z,6.50
2018-09-26T07:40:28.829Z,9.65
2018-09-26T07:43:00.530Z,7.08
2018-09-26T07:45:32.733Z,9.10
2018-09-26T07:48:03.790Z,6.92
2018-09-26T07:50:36.169Z,8.08
2018-09-26T07:53:08.210Z,7.33
2018-09-26T07:55:39.949Z,8.80
2018-09-26T07:58:12.249Z,7.05
2018-09-26T08:00:43.992Z,13.05
2018-09-26T08:03:15.871Z,7.33
2018-09-26T08:05:48.040Z,8.03
2018-09-26T08:08:19.514Z,8.05
2018-09-26T08:10:51.674Z,8.15
2018-09-26T08:13:23.895Z,8.98
2018-09-26T08:15:55.495Z,7.50
2018-09-26T08:18:26.975Z,8.90
2018-09-26T08:20:58.846Z,7.97
2018-09-26T08:23:31.192Z,9.25
2018-09-26T08:26:02.119Z,9.33
2018-09-26T08:28:34.223Z,8.10
2018-09-26T08:31:05.640Z,9.60
2018-09-26T08:33:37.859Z,16.07
2018-09-26T08:36:09.500Z,7.92
2018-09-26T08:38:41.559Z,9.20
2018-09-26T08:41:12.879Z,8.18
2018-09-26T08:43:44.713Z,9.35
2018-09-26T08:46:16.161Z,43.63
2018-09-26T08:48:48.321Z,9.63
2018-09-26T08:51:19.721Z,8.80
2018-09-26T08:53:51.593Z,13.10
2018-09-26T08:56:23.358Z,7.37
2018-09-26T08:58:54.388Z,9.43
2018-09-26T09:01:29.906Z,8.10
2018-09-26T09:04:02.796Z,10.90
2018-09-26T09:06:34.390Z,7.70
2018-09-26T09:09:07.887Z,7.22
2018-09-26T09:11:40.366Z,6.90
2018-09-26T09:14:11.769Z,8.20
2018-09-26T09:16:43.840Z,7.37
2018-09-26T09:19:15.441Z,7.75
2018-09-26T09:21:46.838Z,7.03
2018-09-26T09:24:18.708Z,6.80
2018-09-26T09:26:49.749Z,6.45
2018-09-26T09:29:21.520Z,8.65
2018-09-26T09:31:53.330Z,7.75
2018-09-26T09:34:24.963Z,8.08
2018-09-26T09:36:57.267Z,8.80
2018-09-26T09:39:28.575Z,10.32
2018-09-26T09:42:00.268Z,8.18
2018-09-26T09:44:31.858Z,9.00
2018-09-26T09:47:03.417Z,8.00
2018-09-26T09:49:35.777Z,7.50
2018-09-26T09:52:07.706Z,7.45
2018-09-26T09:54:39.703Z,7.78
2018-09-26T09:57:12.158Z,7.17
2018-09-26T09:59:43.517Z,7.83
2018-09-26T10:02:15.609Z,7.75
2018-09-26T10:04:47.246Z,8.10
2018-09-26T10:07:19.521Z,6.90
2018-09-26T10:09:50.098Z,7.50
2018-09-26T10:12:23.204Z,7.22
2018-09-26T10:14:54.626Z,7.53
2018-09-26T10:17:26.867Z,11.35
2018-09-26T10:19:58.223Z,7.92
2018-09-26T10:22:30.863Z,7.25
2018-09-26T10:25:02.367Z,8.05
2018-09-26T10:27:33.624Z,8.25
2018-09-26T10:30:04.762Z,7.53
2018-09-26T10:32:36.822Z,8.08
2018-09-26T10:35:08.642Z,8.00
2018-09-26T10:37:40.782Z,7.85
2018-09-26T10:40:13.161Z,9.27
2018-09-26T10:42:45.360Z,7.20
2018-09-26T10:45:17.351Z,7.40
2018-09-26T10:47:49.151Z,6.70
2018-09-26T10:50:21.012Z,7.13
2018-09-26T10:52:53.691Z,7.80
2018-09-26T10:55:24.871Z,6.73
2018-09-26T10:57:56.614Z,6.77
2018-09-26T11:00:28.980Z,7.97
2018-09-26T11:03:00.819Z,8.17
2018-09-26T11:05:32.421Z,8.47
2018-09-26T11:08:03.973Z,9.00
2018-09-26T11:10:35.552Z,8.67
2018-09-26T11:13:08.173Z,8.17
2018-09-26T11:15:38.431Z,8.67
2018-09-26T11:18:10.550Z,9.93
2018-09-26T11:20:41.851Z,9.50
2018-09-26T11:23:12.610Z,8.20
2018-09-26T11:25:44.201Z,8.70
2018-09-26T11:28:16.325Z,9.70
2018-09-26T11:30:48.360Z,8.40
2018-09-26T11:33:19.813Z,8.60
2018-09-26T11:35:51.998Z,7.80
2018-09-26T11:38:24.032Z,22.83
2018-09-26T11:40:55.696Z,11.80
2018-09-26T11:43:27.845Z,7.37
2018-09-26T11:46:00.205Z,8.53
2018-09-26T11:48:31.080Z,9.67
2018-09-26T11:51:02.822Z,7.73
2018-09-26T11:53:34.803Z,10.03
2018-09-26T11:56:06.989Z,8.57
2018-09-26T11:58:38.123Z,8.70
2018-09-26T12:01:09.779Z,10.03
2018-09-26T12:03:41.419Z,11.00
2018-09-26T12:06:12.696Z,8.43
2018-09-26T12:08:44.307Z,10.20
2018-09-26T12:11:16.448Z,10.63
2018-09-26T12:13:48.308Z,10.63
2018-09-26T12:16:20.176Z,10.10
2018-09-26T12:18:51.686Z,14.50
2018-09-26T12:21:30.444Z,13.17
2018-09-26T12:23:55.246Z,10.00
2018-09-26T12:26:26.619Z,12.97
2018-09-26T12:29:03.650Z,10.53
2018-09-26T12:31:34.411Z,10.30
2018-09-26T12:34:06.686Z,11.80
2018-09-26T12:36:38.255Z,11.27
2018-09-26T12:39:11.815Z,9.20
2018-09-26T12:41:43.615Z,10.40
2018-09-26T12:44:15.323Z,21.93
2018-09-26T12:46:48.384Z,10.57
2018-09-26T12:49:19.825Z,10.70
2018-09-26T12:51:51.619Z,12.07
2018-09-26T12:54:23.700Z,10.03
2018-09-26T12:56:56.142Z,11.20
2018-09-26T12:59:28.304Z,12.07
2018-09-26T13:02:00.792Z,10.00
2018-09-26T13:04:32.660Z,11.43
2018-09-26T13:07:04.260Z,12.43
2018-09-26T13:09:36.710Z,12.20
2018-09-26T13:12:08.187Z,13.30
2018-09-26T13:14:40.553Z,12.97
2018-09-26T13:17:12.340Z,14.00
2018-09-26T13:19:43.380Z,13.67
2018-09-26T13:22:14.458Z,13.57
2018-09-26T13:24:46.980Z,13.83
2018-09-26T13:27:18.866Z,13.93
2018-09-26T13:29:50.621Z,11.47
2018-09-26T13:32:21.930Z,13.33
2018-09-26T13:34:53.120Z,14.43
2018-09-26T13:37:24.806Z,14.37
2018-09-26T13:39:56.688Z,15.40
2018-09-26T13:42:28.529Z,15.63
2018-09-26T13:45:00.485Z,15.03
2018-09-26T13:47:32.642Z,18.00
2018-09-26T13:50:04.026Z,15.83
2018-09-26T13:52:36.197Z,12.53
2018-09-26T13:55:08.359Z,13.07
2018-09-26T13:57:40.015Z,13.80
2018-09-26T14:00:12.663Z,15.90
2018-09-26T14:02:45.815Z,18.77
2018-09-26T14:05:17.454Z,14.43
2018-09-26T14:07:49.094Z,15.33
2018-09-26T14:10:20.954Z,13.67
2018-09-26T14:12:53.914Z,14.23
2018-09-26T14:15:26.173Z,19.33
2018-09-26T14:17:57.974Z,14.27
2018-09-26T14:20:30.059Z,13.43
2018-09-26T14:23:01.840Z,13.20
2018-09-26T14:25:34.535Z,12.37
2018-09-26T14:28:07.280Z,14.33
2018-09-26T14:30:39.430Z,14.77
2018-09-26T14:33:11.573Z,15.00
2018-09-26T14:35:42.909Z,14.33
2018-09-26T14:38:14.814Z,14.63
2018-09-26T14:40:46.972Z,17.10
2018-09-26T14:43:19.509Z,16.43
2018-09-26T14:45:50.934Z,14.30
2018-09-26T14:48:23.410Z,16.97
2018-09-26T14:50:55.592Z,15.53
2018-09-26T14:53:27.334Z,14.67
2018-09-26T14:55:59.211Z,16.67
2018-09-26T14:58:30.891Z,16.87
2018-09-26T15:01:03.509Z,19.03
2018-09-26T15:03:36.171Z,17.57
2018-09-26T15:06:08.215Z,17.97
2018-09-26T15:08:39.654Z,18.03
2018-09-26T15:11:11.888Z,16.67
2018-09-26T15:13:44.449Z,18.10
2018-09-26T15:16:16.509Z,16.60
2018-09-26T15:18:48.576Z,17.87
2018-09-26T15:21:19.670Z,17.77
2018-09-26T15:23:52.050Z,17.53
2018-09-26T15:26:22.841Z,18.43
2018-09-26T15:28:54.798Z,15.70
2018-09-26T15:31:26.318Z,18.00
2018-09-26T15:33:59.803Z,18.43
2018-09-26T15:36:32.078Z,18.20
2018-09-26T15:39:03.598Z,20.90
2018-09-26T15:41:37.381Z,17.43
2018-09-26T15:44:09.401Z,18.70
2018-09-26T15:46:41.217Z,17.60
2018-09-26T15:49:13.462Z,19.60
2018-09-26T15:51:45.778Z,23.17
2018-09-26T15:54:17.621Z,21.13
2018-09-26T15:56:49.799Z,18.87
2018-09-26T15:59:21.438Z,17.70
2018-09-26T16:01:53.678Z,20.33
2018-09-26T16:04:26.794Z,17.23
2018-09-26T16:06:58.338Z,16.60
2018-09-26T16:09:29.978Z,20.67
2018-09-26T16:12:02.099Z,16.70
2018-09-26T16:14:34.079Z,22.70
2018-09-26T16:17:07.420Z,17.07
2018-09-26T16:19:39.719Z,19.33
2018-09-26T16:22:12.308Z,18.00
2018-09-26T16:24:43.701Z,16.33
2018-09-26T16:27:15.899Z,19.67
2018-09-26T16:29:47.720Z,17.63
2018-09-26T16:32:20.498Z,16.10
2018-09-26T16:34:51.899Z,15.77
2018-09-26T16:37:24.319Z,11.50
2018-09-26T16:39:56.459Z,11.60
2018-09-26T16:42:28.300Z,10.53
2018-09-26T16:45:00.361Z,17.83
2018-09-26T16:47:31.420Z,9.50
2018-09-26T16:50:03.421Z,9.00
2018-09-26T16:52:35.026Z,7.83
2018-09-26T16:55:07.340Z,7.60
2018-09-26T16:57:39.479Z,8.43
2018-09-26T17:00:11.691Z,11.27
2018-09-26T17:02:44.522Z,9.20
2018-09-26T17:05:16.141Z,9.30
2018-09-26T17:07:48.439Z,10.77
2018-09-26T17:10:20.279Z,8.10
2018-09-26T17:12:51.959Z,7.63
2018-09-26T17:15:25.100Z,9.77
2018-09-26T17:17:56.759Z,11.07
2018-09-26T17:20:28.920Z,12.60
2018-09-26T17:22:59.799Z,11.67
2018-09-26T17:25:31.579Z,10.23
2018-09-26T17:28:03.407Z,9.90
2018-09-26T17:30:35.519Z,8.70
2018-09-26T17:33:06.858Z,9.90
2018-09-26T17:35:39.200Z,11.40
2018-09-26T17:38:11.079Z,12.47
2018-09-26T17:40:44.059Z,11.67
2018-09-26T17:43:16.579Z,9.07
2018-09-26T17:45:48.198Z,7.70
2018-09-26T17:48:20.298Z,10.10
2018-09-26T17:50:52.019Z,9.10
2018-09-26T17:53:23.005Z,15.03
2018-09-26T17:55:54.449Z,7.97
2018-09-26T17:58:26.628Z,7.07
2018-09-26T18:00:57.907Z,8.43
2018-09-26T18:03:29.679Z,10.73
2018-09-26T18:06:01.047Z,7.50
2018-09-26T18:08:32.607Z,6.67
2018-09-26T18:11:04.686Z,7.50
2018-09-26T18:13:36.246Z,7.63
2018-09-26T18:16:08.646Z,8.63
2018-09-26T18:18:41.606Z,11.40
2018-09-26T18:21:13.425Z,11.87
2018-09-26T18:23:46.345Z,8.90
2018-09-26T18:26:17.659Z,11.57
2018-09-26T18:28:49.709Z,13.00
2018-09-26T18:31:21.647Z,10.27
2018-09-26T18:33:53.686Z,9.67
2018-09-26T18:36:25.826Z,10.73
2018-09-26T18:38:57.971Z,12.87
2018-09-26T18:41:29.905Z,10.30
2018-09-26T18:44:01.906Z,11.73
2018-09-26T18:46:33.947Z,9.80
2018-09-26T18:49:05.886Z,9.23
2018-09-26T18:51:37.946Z,8.70
2018-09-26T18:54:10.026Z,8.70
2018-09-26T18:56:41.505Z,8.60
2018-09-26T18:59:14.030Z,8.73
2018-09-26T19:01:45.468Z,11.53
2018-09-26T19:04:17.508Z,7.50
2018-09-26T19:06:49.045Z,8.73
2018-09-26T19:09:21.146Z,6.63
2018-09-26T19:11:52.365Z,8.03
2018-09-26T19:14:24.225Z,10.10
2018-09-26T19:16:56.165Z,8.20
2018-09-26T19:19:28.367Z,7.40
2018-09-26T19:22:00.165Z,6.73
2018-09-26T19:24:31.485Z,7.67
2018-09-26T19:27:03.962Z,9.43
2018-09-26T19:29:36.185Z,7.90
2018-09-26T19:32:08.026Z,7.90
2018-09-26T19:34:39.487Z,7.13
2018-09-26T19:37:11.206Z,6.97
2018-09-26T19:39:43.088Z,10.85
2018-09-26T19:42:14.547Z,8.20
2018-09-26T19:44:47.348Z,9.83
2018-09-26T19:47:19.528Z,9.10
2018-09-26T19:49:51.527Z,8.77
2018-09-26T19:52:23.734Z,9.73
2018-09-26T19:54:55.326Z,9.70
2018-09-26T19:57:27.627Z,8.03
2018-09-26T19:59:59.605Z,8.33
2018-09-26T20:02:31.487Z,10.17
2018-09-26T20:05:03.485Z,8.98
2018-09-26T20:07:35.467Z,8.95
2018-09-26T20:10:08.569Z,9.60
2018-09-26T20:12:41.087Z,9.40
2018-09-26T20:15:12.767Z,9.70
2018-09-26T20:17:45.185Z,11.55
2018-09-26T20:20:17.405Z,9.38
2018-09-26T20:22:49.668Z,11.55
2018-09-26T20:25:21.885Z,9.00
2018-09-26T20:27:53.787Z,9.23
2018-09-26T20:30:26.345Z,7.80
2018-09-26T20:32:58.346Z,7.28
2018-09-26T20:35:30.401Z,8.10
2018-09-26T20:38:02.465Z,8.47
2018-09-26T20:40:34.665Z,8.08
2018-09-26T20:43:07.145Z,7.10
2018-09-26T20:45:39.705Z,8.38
2018-09-26T20:48:11.686Z,8.67
2018-09-26T20:50:44.305Z,7.23
2018-09-26T20:53:16.505Z,7.75
2018-09-26T20:55:47.766Z,7.30
2018-09-26T20:58:20.093Z,8.58
2018-09-26T21:00:52.506Z,8.70
2018-09-26T21:03:25.669Z,9.10
2018-09-26T21:05:57.747Z,11.73
2018-09-26T21:08:30.965Z,8.30
2018-09-26T21:11:02.565Z,7.57
2018-09-26T21:13:34.245Z,7.17
2018-09-26T21:16:05.787Z,7.90
2018-09-26T21:18:38.186Z,7.80
2018-09-26T21:21:09.607Z,9.33
2018-09-26T21:23:41.726Z,8.05
2018-09-26T21:26:13.926Z,8.95
2018-09-26T21:28:45.552Z,7.35
2018-09-26T21:31:18.220Z,10.08
2018-09-26T21:33:50.126Z,7.78
2018-09-26T21:36:22.028Z,18.25
2018-09-26T21:38:53.857Z,8.15
2018-09-26T21:41:25.626Z,7.95
2018-09-26T21:43:57.866Z,7.20
2018-09-26T21:46:29.566Z,9.45
2018-09-26T21:49:01.506Z,6.87
2018-09-26T21:51:33.287Z,8.53
2018-09-26T21:54:05.126Z,9.73
2018-09-26T21:56:36.985Z,7.30
2018-09-26T21:59:08.204Z,6.97
2018-09-26T22:01:40.284Z,6.60
2018-09-26T22:04:12.844Z,5.97
2018-09-26T22:06:44.964Z,6.60
2018-09-26T22:09:16.843Z,7.55
2018-09-26T22:11:48.586Z,7.75
2018-09-26T22:14:20.943Z,6.58
2018-09-26T22:16:53.563Z,5.80
2018-09-26T22:19:25.504Z,6.27
2018-09-26T22:21:57.405Z,6.93
2018-09-26T22:24:29.222Z,5.90
2018-09-26T22:27:00.944Z,7.40
2018-09-26T22:29:32.622Z,8.33
2018-09-26T22:32:04.624Z,6.20
2018-09-26T22:34:37.111Z,7.50
2018-09-26T22:37:09.044Z,5.10
2018-09-26T22:39:41.604Z,9.93
2018-09-26T22:42:12.824Z,8.33
2018-09-26T22:44:45.505Z,33.53
2018-09-26T22:47:17.804Z,7.55
2018-09-26T22:49:50.064Z,5.50
2018-09-26T22:52:21.868Z,6.05
2018-09-26T22:54:53.585Z,6.60
2018-09-26T22:57:25.808Z,6.42
2018-09-26T22:59:57.804Z,6.10
2018-09-26T23:02:30.324Z,6.03
2018-09-26T23:05:02.525Z,5.60
2018-09-26T23:07:34.324Z,5.47
2018-09-26T23:10:06.124Z,5.08
2018-09-26T23:12:37.484Z,5.05
2018-09-26T23:15:09.744Z,4.85
2018-09-26T23:17:41.464Z,5.72
2018-09-26T23:20:13.624Z,6.40
2018-09-26T23:22:45.444Z,7.53
2018-09-26T23:25:17.024Z,6.55
2018-09-26T23:27:49.506Z,5.67
2018-09-26T23:30:21.225Z,5.08
2018-09-26T23:32:53.345Z,5.50
2018-09-26T23:35:24.484Z,5.55
2018-09-26T23:37:56.444Z,5.25
2018-09-26T23:40:28.384Z,4.97
2018-09-26T23:43:00.324Z,5.15
2018-09-26T23:45:31.825Z,5.45
2018-09-26T23:48:04.505Z,6.37
2018-09-26T23:50:35.504Z,4.80
2018-09-26T23:53:07.824Z,8.30
2018-09-26T23:55:39.664Z,6.15
2018-09-26T23:58:10.524Z,5.72
